Highland-University Park's Hourly Summary for Wednesday, April 19, 2017
Hour Temp
(f)
RH
(%)
Solar Rad.
(MJ/m2)
Rainfall
(in)
Wind
(mph)
4/19/2017 12:00 AM 67 86 0 0 0.91
4/19/2017 1:00 AM 66 89 0 0 0.92
4/19/2017 2:00 AM 65 94 0 0 0.67
4/19/2017 3:00 AM 65 96 0 0 1.5
4/19/2017 4:00 AM 65 96 0 0 2.54
4/19/2017 5:00 AM 65 95 0 0 2.39
4/19/2017 6:00 AM 66 92 0 0 1.82
4/19/2017 7:00 AM 66 90 0 0 1.4
4/19/2017 8:00 AM 66 88 0.09 0 1.24
4/19/2017 9:00 AM 67 83 0.35 0 1.21
4/19/2017 10:00 AM 70 76 1.04 0 2.36
4/19/2017 11:00 AM 71 72 1 0 2.15
4/19/2017 12:00 PM 73 68 1.39 0 1.8
4/19/2017 1:00 PM 76 62 1.65 0 2.13
4/19/2017 2:00 PM 79 53 2.25 0 2.68
4/19/2017 3:00 PM 81 50 2.61 0 2.76
4/19/2017 4:00 PM 82 48 2.28 0 2.81
4/19/2017 5:00 PM 83 47 2.25 0 3.36
4/19/2017 6:00 PM 81 51 0.6 0 2.26
4/19/2017 7:00 PM 80 56 0.45 0 2.46
4/19/2017 8:00 PM 79 56 0.13 0 2.02
4/19/2017 9:00 PM 77 62 0 0 1.46
4/19/2017 10:00 PM 75 68 0 0 2.95
4/19/2017 11:00 PM 74 74 0 0 4.17
Data Summary 72 73 16.09 0.00 2.08